createdAt,value
2023-04-02T00:00:10.973Z,0.20
2023-04-02T00:02:48.151Z,0.52
2023-04-02T00:05:16.732Z,0.22
2023-04-02T00:07:49.377Z,0.35
2023-04-02T00:10:27.167Z,0.20
2023-04-02T00:13:09.470Z,0.28
2023-04-02T00:15:40.501Z,0.20
2023-04-02T00:18:18.697Z,0.20
2023-04-02T00:20:53.108Z,0.55
2023-04-02T00:23:22.441Z,0.20
2023-04-02T00:25:51.013Z,0.20
2023-04-02T00:28:22.982Z,0.20
2023-04-02T00:30:58.522Z,0.17
2023-04-02T00:33:28.931Z,0.30
2023-04-02T00:35:57.531Z,0.28
2023-04-02T00:38:32.987Z,0.13
2023-04-02T00:41:06.365Z,0.22
2023-04-02T00:43:37.415Z,0.10
2023-04-02T00:46:14.272Z,0.20
2023-04-02T00:48:46.006Z,0.28
2023-04-02T00:51:18.120Z,0.10
2023-04-02T00:53:49.246Z,0.10
2023-04-02T00:56:29.345Z,0.35
2023-04-02T00:58:58.612Z,0.20
2023-04-02T01:01:35.780Z,0.20
2023-04-02T01:04:25.812Z,0.22
2023-04-02T01:06:54.516Z,0.05
2023-04-02T01:09:44.988Z,0.10
2023-04-02T01:12:19.252Z,0.20
2023-04-02T01:15:08.451Z,0.10
2023-04-02T01:18:18.157Z,0.20
2023-04-02T01:21:11.951Z,0.10
2023-04-02T01:24:01.513Z,0.20
2023-04-02T01:26:58.116Z,0.20
2023-04-02T01:29:51.308Z,0.20
2023-04-02T01:32:22.765Z,0.45
2023-04-02T01:34:52.599Z,0.35
2023-04-02T01:37:46.870Z,0.37
2023-04-02T01:40:41.898Z,0.40
2023-04-02T01:43:33.278Z,0.30
2023-04-02T01:46:23.520Z,0.30
2023-04-02T01:48:54.096Z,0.40
2023-04-02T01:51:31.851Z,0.30
2023-04-02T01:54:06.317Z,0.30
2023-04-02T01:56:35.674Z,0.10
2023-04-02T01:59:06.032Z,0.30
2023-04-02T02:01:42.732Z,0.10
2023-04-02T02:04:16.208Z,0.40
2023-04-02T02:06:45.336Z,0.50
2023-04-02T02:09:32.785Z,0.10
2023-04-02T02:12:03.061Z,0.40
2023-04-02T02:14:32.027Z,0.35
2023-04-02T02:17:02.518Z,0.60
2023-04-02T02:19:42.664Z,0.20
2023-04-02T02:22:31.297Z,0.40
2023-04-02T02:25:03.016Z,0.20
2023-04-02T02:27:42.895Z,0.20
2023-04-02T02:30:15.654Z,0.20
2023-04-02T02:32:53.964Z,0.20
2023-04-02T02:35:29.287Z,0.40
2023-04-02T02:38:24.459Z,0.10
2023-04-02T02:40:58.528Z,0.20
2023-04-02T02:43:27.267Z,0.25
2023-04-02T02:45:57.770Z,0.22
2023-04-02T02:48:37.403Z,0.30
2023-04-02T02:51:21.940Z,0.57
2023-04-02T02:53:54.612Z,0.45
2023-04-02T02:56:24.894Z,0.30
2023-04-02T02:58:53.815Z,0.20
2023-04-02T03:01:23.059Z,0.47
2023-04-02T03:03:54.937Z,0.30
2023-04-02T03:06:24.591Z,0.37
2023-04-02T03:09:21.624Z,0.08
2023-04-02T03:12:00.059Z,0.47
2023-04-02T03:14:44.233Z,0.50
2023-04-02T03:17:21.118Z,0.50
2023-04-02T03:19:54.701Z,0.40
2023-04-02T03:22:42.924Z,0.60
2023-04-02T03:25:20.009Z,0.30
2023-04-02T03:27:54.053Z,0.30
2023-04-02T03:30:43.050Z,0.50
2023-04-02T03:33:22.219Z,0.40
2023-04-02T03:36:01.641Z,0.60
2023-04-02T03:38:44.887Z,0.45
2023-04-02T03:41:31.771Z,0.32
2023-04-02T03:44:07.812Z,0.70
2023-04-02T03:46:48.122Z,0.40
2023-04-02T03:49:42.531Z,0.28
2023-04-02T03:52:12.401Z,0.35
2023-04-02T03:54:53.658Z,0.40
2023-04-02T03:57:33.583Z,0.40
2023-04-02T04:00:05.636Z,0.40
2023-04-02T04:02:52.832Z,0.30
2023-04-02T04:05:35.812Z,0.40
2023-04-02T04:08:16.363Z,0.50
2023-04-02T04:10:45.696Z,0.22
2023-04-02T04:13:18.725Z,0.60
2023-04-02T04:16:00.501Z,0.20
2023-04-02T04:18:47.812Z,0.43
2023-04-02T04:21:50.962Z,0.55
2023-04-02T04:24:27.395Z,0.40
2023-04-02T04:27:09.548Z,0.30
2023-04-02T04:30:03.990Z,0.40
2023-04-02T04:32:50.527Z,0.45
2023-04-02T04:35:35.609Z,0.37
2023-04-02T04:38:32.678Z,0.45
2023-04-02T04:41:15.043Z,0.22
2023-04-02T04:43:52.175Z,0.47
2023-04-02T04:46:33.609Z,0.25
2023-04-02T04:49:26.305Z,0.50
2023-04-02T04:52:22.755Z,0.30
2023-04-02T04:54:51.843Z,0.30
2023-04-02T04:57:38.365Z,0.20
2023-04-02T05:00:37.608Z,0.20
2023-04-02T05:03:31.866Z,0.40
2023-04-02T05:06:13.175Z,0.30
2023-04-02T05:08:48.044Z,0.20
2023-04-02T05:11:32.372Z,0.20
2023-04-02T05:14:16.673Z,0.35
2023-04-02T05:17:05.330Z,0.37
2023-04-02T05:19:56.992Z,0.47
2023-04-02T05:22:42.742Z,0.77
2023-04-02T05:25:18.754Z,0.75
2023-04-02T05:28:05.794Z,0.25
2023-04-02T05:30:46.698Z,0.17
2023-04-02T05:33:27.951Z,0.43
2023-04-02T05:36:01.538Z,0.37
2023-04-02T05:38:35.545Z,0.17
2023-04-02T05:41:16.925Z,0.55
2023-04-02T05:43:48.640Z,0.30
2023-04-02T05:46:21.505Z,0.30
2023-04-02T05:48:57.168Z,0.28
2023-04-02T05:51:38.821Z,0.37
2023-04-02T05:54:21.240Z,0.32
2023-04-02T05:56:55.382Z,0.28
2023-04-02T05:59:29.918Z,0.20
2023-04-02T06:02:03.556Z,0.40
2023-04-02T06:04:51.484Z,0.45
2023-04-02T06:07:28.379Z,0.30
2023-04-02T06:10:17.912Z,0.20
2023-04-02T06:13:07.630Z,0.20
2023-04-02T06:15:38.610Z,0.30
2023-04-02T06:18:24.143Z,1.20
2023-04-02T06:20:53.781Z,0.45
2023-04-02T06:23:22.234Z,0.45
2023-04-02T06:25:59.305Z,0.30
2023-04-02T06:28:48.917Z,0.77
2023-04-02T06:31:35.059Z,0.40
2023-04-02T06:34:07.608Z,0.35
2023-04-02T06:36:36.492Z,0.30
2023-04-02T06:39:09.242Z,0.20
2023-04-02T06:41:37.729Z,0.60
2023-04-02T06:44:16.412Z,0.40
2023-04-02T06:46:57.942Z,0.55
2023-04-02T06:49:40.227Z,0.20
2023-04-02T06:52:24.244Z,0.20
2023-04-02T06:54:53.517Z,0.40
2023-04-02T06:57:22.759Z,0.50
2023-04-02T06:59:51.933Z,0.40
2023-04-02T07:02:37.533Z,0.60
2023-04-02T07:07:38.664Z,0.65
2023-04-02T07:10:09.313Z,0.70
2023-04-02T07:12:38.466Z,0.60
2023-04-02T07:15:07.296Z,0.47
2023-04-02T07:17:35.762Z,0.40
2023-04-02T07:20:04.437Z,0.40
2023-04-02T07:22:32.914Z,0.30
2023-04-02T07:25:01.634Z,0.47
2023-04-02T07:27:30.793Z,0.65
2023-04-02T07:29:59.088Z,0.30
2023-04-02T07:32:27.249Z,0.40
2023-04-02T07:34:55.857Z,0.32
2023-04-02T07:37:24.021Z,0.52
2023-04-02T07:39:52.292Z,0.75
2023-04-02T07:42:21.152Z,0.77
2023-04-02T07:44:49.981Z,0.40
2023-04-02T07:47:18.012Z,0.77
2023-04-02T07:49:47.055Z,0.62
2023-04-02T07:52:15.813Z,1.08
2023-04-02T07:54:44.007Z,0.50
2023-04-02T07:57:12.388Z,0.82
2023-04-02T07:59:41.743Z,0.88
2023-04-02T08:02:27.971Z,0.93
2023-04-02T08:04:56.904Z,0.75
2023-04-02T08:07:25.038Z,0.57
2023-04-02T08:09:53.162Z,0.40
2023-04-02T08:12:22.214Z,0.82
2023-04-02T08:14:50.431Z,0.80
2023-04-02T08:17:18.753Z,0.70
2023-04-02T08:19:54.769Z,0.60
2023-04-02T08:22:23.560Z,0.57
2023-04-02T08:24:52.808Z,0.60
2023-04-02T08:27:21.288Z,0.60
2023-04-02T08:29:49.648Z,1.00
2023-04-02T08:32:18.772Z,0.47
2023-04-02T08:34:46.800Z,0.35
2023-04-02T08:37:15.221Z,0.70
2023-04-02T08:39:43.949Z,0.70
2023-04-02T08:42:27.358Z,0.60
2023-04-02T08:45:25.487Z,0.68
2023-04-02T08:48:10.101Z,0.82
2023-04-02T08:50:41.762Z,0.50
2023-04-02T08:53:22.961Z,1.25
2023-04-02T08:56:06.110Z,0.50
2023-04-02T08:58:54.441Z,0.52
2023-04-02T09:01:45.065Z,0.82
2023-04-02T09:04:24.822Z,0.50
2023-04-02T09:06:56.355Z,0.50
2023-04-02T09:09:25.489Z,1.23
2023-04-02T09:12:01.340Z,0.70
2023-04-02T09:14:52.690Z,0.50
2023-04-02T09:17:24.980Z,0.55
2023-04-02T09:20:03.417Z,0.73
2023-04-02T09:22:34.126Z,0.65
2023-04-02T09:25:05.683Z,0.70
2023-04-02T09:27:36.551Z,0.57
2023-04-02T09:30:32.494Z,0.70
2023-04-02T09:33:07.965Z,0.80
2023-04-02T09:38:28.391Z,0.80
2023-04-02T09:41:07.566Z,0.85
2023-04-02T09:43:38.470Z,0.65
2023-04-02T09:46:22.717Z,1.25
2023-04-02T09:48:56.038Z,0.70
2023-04-02T09:51:26.821Z,0.60
2023-04-02T09:54:04.362Z,0.60
2023-04-02T09:56:35.493Z,0.77
2023-04-02T09:59:13.298Z,0.65
2023-04-02T10:01:47.830Z,0.60
2023-04-02T10:04:45.135Z,0.60
2023-04-02T10:07:34.597Z,0.77
2023-04-02T10:10:16.699Z,0.68
2023-04-02T10:12:50.325Z,0.73
2023-04-02T10:15:27.637Z,0.88
2023-04-02T10:18:25.872Z,0.50
2023-04-02T10:20:56.438Z,0.98
2023-04-02T10:23:29.522Z,0.80
2023-04-02T10:26:53.073Z,0.98
2023-04-02T10:29:27.212Z,1.00
2023-04-02T10:32:02.459Z,0.88
2023-04-02T10:34:45.769Z,0.70
2023-04-02T10:37:27.586Z,1.17
2023-04-02T10:40:25.703Z,0.57
2023-04-02T10:43:13.293Z,0.98
2023-04-02T10:45:49.394Z,1.00
2023-04-02T10:48:33.365Z,0.77
2023-04-02T10:51:07.419Z,0.73
2023-04-02T10:54:01.576Z,0.85
2023-04-02T10:56:44.098Z,0.77
2023-04-02T10:59:28.073Z,0.60
2023-04-02T11:01:58.275Z,1.00
2023-04-02T11:04:41.963Z,0.62
2023-04-02T11:07:22.695Z,0.88
2023-04-02T11:09:56.428Z,0.75
2023-04-02T11:12:44.606Z,0.80
2023-04-02T11:15:20.536Z,0.93
2023-04-02T11:17:49.109Z,0.88
2023-04-02T11:20:45.916Z,1.10
2023-04-02T11:23:20.970Z,0.82
2023-04-02T11:25:49.938Z,0.68
2023-04-02T11:28:31.723Z,0.62
2023-04-02T11:31:00.987Z,0.62
2023-04-02T11:33:39.911Z,0.50
2023-04-02T11:36:48.297Z,0.60
2023-04-02T11:42:24.966Z,0.70
2023-04-02T11:44:54.728Z,1.02
2023-04-02T11:47:25.196Z,0.75
2023-04-02T11:50:01.470Z,0.80
2023-04-02T11:52:52.978Z,0.98
2023-04-02T11:55:32.805Z,1.42
2023-04-02T11:58:22.890Z,0.90
2023-04-02T12:01:08.081Z,0.90
2023-04-02T12:03:51.599Z,1.02
2023-04-02T12:06:39.911Z,0.35
2023-04-02T12:09:38.104Z,0.70
2023-04-02T12:12:24.947Z,0.50
2023-04-02T12:14:58.313Z,1.00
2023-04-02T12:17:31.322Z,0.62
2023-04-02T12:20:08.459Z,0.50
2023-04-02T12:22:41.382Z,0.50
2023-04-02T12:25:29.455Z,0.50
2023-04-02T12:28:18.777Z,0.60
2023-04-02T12:30:48.951Z,0.93
2023-04-02T12:33:20.490Z,0.82
2023-04-02T12:36:00.156Z,0.90
2023-04-02T12:38:31.275Z,1.00
2023-04-02T12:41:03.770Z,0.60
2023-04-02T12:43:38.142Z,0.57
2023-04-02T12:46:09.058Z,0.62
2023-04-02T12:48:39.405Z,0.82
2023-04-02T12:51:07.997Z,0.35
2023-04-02T12:53:41.407Z,0.30
2023-04-02T12:56:21.432Z,0.50
2023-04-02T12:59:00.596Z,0.70
2023-04-02T13:01:31.763Z,0.50
2023-04-02T13:04:14.962Z,0.50
2023-04-02T13:06:52.226Z,0.60
2023-04-02T13:09:47.013Z,0.57
2023-04-02T13:12:40.734Z,0.35
2023-04-02T13:15:25.847Z,0.35
2023-04-02T13:18:18.755Z,0.20
2023-04-02T13:20:59.365Z,0.60
2023-04-02T13:23:30.954Z,0.10
2023-04-02T13:26:02.307Z,0.57
2023-04-02T13:28:30.996Z,0.47
2023-04-02T13:30:59.103Z,0.37
2023-04-02T13:33:27.661Z,0.32
2023-04-02T13:35:56.534Z,0.50
2023-04-02T13:38:24.687Z,0.47
2023-04-02T13:40:53.252Z,0.50
2023-04-02T13:43:21.860Z,0.55
2023-04-02T13:45:54.271Z,0.25
2023-04-02T13:48:27.045Z,0.40
2023-04-02T13:50:55.529Z,0.30
2023-04-02T13:53:33.666Z,0.40
2023-04-02T13:56:02.019Z,0.80
2023-04-02T13:58:30.623Z,0.45
2023-04-02T14:00:59.304Z,0.30
2023-04-02T14:03:28.165Z,0.40
2023-04-02T14:06:28.105Z,0.50
2023-04-02T14:09:10.333Z,0.40
2023-04-02T14:12:01.444Z,0.80
2023-04-02T14:15:12.519Z,0.60
2023-04-02T14:18:05.692Z,0.55
2023-04-02T14:21:12.558Z,0.47
2023-04-02T14:24:07.160Z,0.45
2023-04-02T14:27:23.198Z,0.68
2023-04-02T14:30:12.123Z,0.47
2023-04-02T14:33:17.799Z,0.20
2023-04-02T14:36:05.812Z,0.47
2023-04-02T14:38:49.975Z,0.57
2023-04-02T14:41:39.740Z,0.98
2023-04-02T14:44:10.729Z,1.15
2023-04-02T14:46:39.577Z,0.80
2023-04-02T14:49:35.043Z,0.85
2023-04-02T14:52:06.235Z,0.85
2023-04-02T14:54:50.192Z,0.82
2023-04-02T14:57:39.200Z,0.57
2023-04-02T15:00:33.727Z,1.12
2023-04-02T15:03:18.560Z,1.00
2023-04-02T15:05:54.451Z,1.40
2023-04-02T15:08:27.252Z,1.15
2023-04-02T15:11:06.532Z,1.15
2023-04-02T15:13:51.489Z,1.17
2023-04-02T15:16:23.473Z,1.10
2023-04-02T15:18:55.348Z,1.23
2023-04-02T15:21:57.538Z,1.45
2023-04-02T15:24:40.260Z,0.95
2023-04-02T15:27:56.440Z,1.62
2023-04-02T15:30:35.329Z,1.23
2023-04-02T15:33:23.798Z,1.20
2023-04-02T15:35:59.914Z,0.95
2023-04-02T15:38:36.351Z,1.30
2023-04-02T15:41:10.903Z,1.12
2023-04-02T15:46:38.139Z,2.10
2023-04-02T15:49:31.909Z,3.33
2023-04-02T15:52:11.491Z,7.28
2023-04-02T15:54:58.840Z,2.83
2023-04-02T15:57:54.768Z,2.25
2023-04-02T16:00:33.557Z,1.40
2023-04-02T16:03:34.913Z,1.33
2023-04-02T16:06:34.301Z,1.80
2023-04-02T16:09:16.154Z,2.03
2023-04-02T16:11:44.880Z,1.52
2023-04-02T16:14:34.020Z,0.85
2023-04-02T16:17:23.888Z,0.85
2023-04-02T16:20:18.701Z,1.25
2023-04-02T16:23:00.588Z,1.48
2023-04-02T16:25:44.280Z,0.90
2023-04-02T16:28:28.534Z,0.68
2023-04-02T16:31:09.664Z,0.75
2023-04-02T16:34:00.037Z,0.55
2023-04-02T16:37:09.705Z,0.37
2023-04-02T16:39:59.546Z,0.37
2023-04-02T16:42:43.469Z,0.68
2023-04-02T16:45:31.407Z,0.60
2023-04-02T16:48:04.891Z,0.47
2023-04-02T16:50:39.172Z,1.08
2023-04-02T16:53:24.811Z,1.08
2023-04-02T16:56:21.127Z,1.30
2023-04-02T16:59:14.701Z,1.17
2023-04-02T17:01:54.877Z,1.02
2023-04-02T17:04:28.126Z,0.80
2023-04-02T17:07:26.378Z,1.15
2023-04-02T17:10:14.388Z,0.80
2023-04-02T17:12:51.318Z,1.05
2023-04-02T17:15:32.203Z,0.95
2023-04-02T17:18:01.933Z,1.10
2023-04-02T17:20:31.158Z,0.52
2023-04-02T17:22:59.808Z,0.57
2023-04-02T17:25:35.370Z,0.80
2023-04-02T17:28:12.135Z,0.62
2023-04-02T17:30:45.022Z,1.00
2023-04-02T17:33:18.271Z,0.70
2023-04-02T17:36:22.337Z,0.80
2023-04-02T17:39:14.335Z,0.93
2023-04-02T17:41:45.646Z,0.55
2023-04-02T17:44:42.961Z,0.80
2023-04-02T17:47:31.570Z,0.50
2023-04-02T17:50:35.359Z,0.70
2023-04-02T17:53:25.900Z,1.00
2023-04-02T17:56:32.878Z,0.40
2023-04-02T17:59:38.402Z,0.43
2023-04-02T18:02:35.776Z,0.45
2023-04-02T18:05:47.978Z,0.68
2023-04-02T18:08:53.856Z,0.40
2023-04-02T18:11:55.312Z,0.60
2023-04-02T18:15:03.097Z,0.45
2023-04-02T18:17:37.546Z,0.50
2023-04-02T18:20:20.128Z,0.60
2023-04-02T18:23:33.627Z,0.43
2023-04-02T18:26:11.451Z,0.60
2023-04-02T18:29:17.313Z,0.60
2023-04-02T18:31:46.424Z,0.52
2023-04-02T18:34:43.224Z,0.30
2023-04-02T18:37:32.051Z,0.85
2023-04-02T18:40:39.486Z,0.40
2023-04-02T18:43:20.702Z,1.00
2023-04-02T18:46:15.839Z,0.65
2023-04-02T18:48:47.276Z,1.62
2023-04-02T18:51:24.389Z,1.35
2023-04-02T18:54:15.825Z,1.05
2023-04-02T18:56:45.021Z,1.52
2023-04-02T18:59:51.967Z,1.75
2023-04-02T19:02:21.138Z,1.37
2023-04-02T19:05:02.157Z,1.42
2023-04-02T19:07:36.180Z,1.58
2023-04-02T19:10:34.407Z,1.67
2023-04-02T19:13:12.539Z,0.80
2023-04-02T19:16:11.255Z,1.08
2023-04-02T19:18:55.208Z,0.95
2023-04-02T19:21:42.372Z,1.10
2023-04-02T19:24:29.906Z,0.62
2023-04-02T19:27:12.644Z,0.70
2023-04-02T19:30:14.742Z,0.50
2023-04-02T19:33:14.128Z,0.70
2023-04-02T19:35:55.550Z,0.40
2023-04-02T19:38:53.439Z,0.60
2023-04-02T19:42:03.705Z,0.40
2023-04-02T19:44:32.056Z,0.93
2023-04-02T19:47:00.881Z,0.57
2023-04-02T19:49:33.939Z,0.93
2023-04-02T19:52:03.313Z,0.45
2023-04-02T19:54:31.934Z,0.40
2023-04-02T19:57:00.731Z,0.52
2023-04-02T19:59:30.336Z,1.20
2023-04-02T20:02:02.253Z,0.60
2023-04-02T20:04:31.184Z,0.47
2023-04-02T20:06:59.573Z,0.40
2023-04-02T20:09:29.702Z,0.52
2023-04-02T20:11:58.546Z,0.52
2023-04-02T20:14:26.989Z,0.40
2023-04-02T20:16:55.398Z,0.77
2023-04-02T20:19:24.057Z,0.65
2023-04-02T20:21:52.388Z,0.15
2023-04-02T20:24:20.769Z,0.43
2023-04-02T20:26:49.641Z,0.50
2023-04-02T20:29:18.143Z,0.55
2023-04-02T20:31:46.554Z,0.70
2023-04-02T20:34:15.313Z,0.50
2023-04-02T20:36:44.457Z,0.40
2023-04-02T20:39:19.227Z,0.15
2023-04-02T20:41:48.879Z,0.57
2023-04-02T20:44:17.455Z,0.60
2023-04-02T20:46:45.577Z,0.62
2023-04-02T20:49:14.214Z,0.68
2023-04-02T20:51:43.031Z,0.50
2023-04-02T20:54:11.422Z,0.70
2023-04-02T20:56:40.049Z,1.20
2023-04-02T20:59:08.315Z,0.80
2023-04-02T21:01:37.661Z,0.57
2023-04-02T21:04:06.251Z,0.60
2023-04-02T21:06:37.497Z,0.30
2023-04-02T21:09:08.887Z,0.77
2023-04-02T21:11:37.438Z,0.32
2023-04-02T21:14:06.543Z,0.35
2023-04-02T21:16:35.844Z,0.95
2023-04-02T21:19:07.477Z,0.22
2023-04-02T21:21:38.181Z,0.50
2023-04-02T21:24:08.306Z,0.45
2023-04-02T21:26:39.326Z,0.60
2023-04-02T21:29:07.848Z,0.85
2023-04-02T21:31:38.185Z,0.77
2023-04-02T21:34:08.561Z,0.70
2023-04-02T21:36:41.952Z,0.80
2023-04-02T21:39:15.815Z,1.23
2023-04-02T21:41:46.866Z,0.68
2023-04-02T21:44:17.983Z,0.93
2023-04-02T21:46:46.385Z,0.80
2023-04-02T21:49:17.623Z,0.60
2023-04-02T21:51:47.568Z,0.37
2023-04-02T21:54:16.194Z,0.47
2023-04-02T21:56:46.112Z,0.80
2023-04-02T21:59:16.897Z,1.40
2023-04-02T22:01:48.582Z,0.88
2023-04-02T22:04:25.711Z,0.90
2023-04-02T22:06:54.275Z,1.00
2023-04-02T22:09:25.193Z,0.90
2023-04-02T22:11:59.430Z,0.65
2023-04-02T22:14:28.585Z,0.55
2023-04-02T22:16:58.764Z,0.32
2023-04-02T22:19:28.001Z,1.05
2023-04-02T22:21:56.779Z,0.77
2023-04-02T22:24:25.306Z,0.88
2023-04-02T22:26:54.312Z,0.95
2023-04-02T22:29:22.633Z,0.75
2023-04-02T22:31:50.925Z,0.65
2023-04-02T22:34:19.711Z,0.95
2023-04-02T22:36:48.123Z,0.70
2023-04-02T22:39:17.127Z,0.90
2023-04-02T22:41:46.352Z,0.65
2023-04-02T22:44:15.885Z,0.85
2023-04-02T22:46:44.059Z,0.88
2023-04-02T22:49:15.993Z,0.90
2023-04-02T22:51:45.617Z,1.10
2023-04-02T22:54:14.056Z,0.85
2023-04-02T22:56:42.368Z,0.70
2023-04-02T22:59:10.906Z,0.80
2023-04-02T23:01:39.237Z,0.45
2023-04-02T23:04:07.669Z,0.80
2023-04-02T23:06:35.982Z,0.80
2023-04-02T23:09:04.626Z,1.00
2023-04-02T23:11:32.878Z,1.10
2023-04-02T23:14:01.400Z,0.90
2023-04-02T23:16:30.013Z,1.00
2023-04-02T23:18:58.996Z,1.17
2023-04-02T23:21:27.367Z,1.80
2023-04-02T23:23:56.370Z,1.30
2023-04-02T23:26:29.454Z,0.50
2023-04-02T23:29:00.669Z,0.60
2023-04-02T23:31:29.831Z,0.93
2023-04-02T23:33:58.691Z,0.95
2023-04-02T23:36:35.946Z,0.90
2023-04-02T23:39:10.645Z,0.80
2023-04-02T23:41:40.939Z,1.30
2023-04-02T23:44:10.407Z,0.73
2023-04-02T23:46:38.706Z,1.10
2023-04-02T23:49:08.111Z,1.08
2023-04-02T23:51:36.419Z,1.10
2023-04-02T23:54:04.816Z,0.93
2023-04-02T23:56:33.054Z,1.20
2023-04-02T23:59:01.550Z,0.98
